Time;durP1;ratioP1;P1;durP2;ratioP2;P2;SDS_P1;SDS_P2;PMS_P1;PMS_P2;Temp;Humidity;BMP_temperature;BMP_pressure;BME280_temperature;BME280_humidity;BME280_pressure;Samples;Min_cycle;Max_cycle;Signal;HPM_P1;HPM_P2
2023/03/01 00:01:58;;;;;;;;;27.00;26.50;;;;;5.21;40.13;102205.91;5017560;28;45807;-66
2023/03/01 00:04:23;;;;;;;;;27.25;23.00;;;;;5.18;40.26;102203.19;5017659;28;47710;-66
2023/03/01 00:06:48;;;;;;;;;25.50;23.50;;;;;5.15;40.10;102208.31;5018433;28;45255;-66
2023/03/01 00:09:15;;;;;;;;;27.25;24.75;;;;;5.14;39.88;102204.81;5017135;28;45339;-66
2023/03/01 00:11:40;;;;;;;;;23.75;20.50;;;;;5.10;40.33;102205.56;5005959;28;45397;-66
2023/03/01 00:14:06;;;;;;;;;23.25;21.50;;;;;5.05;39.92;102196.72;5009038;28;45263;-66
2023/03/01 00:16:36;;;;;;;;;23.00;20.25;;;;;5.06;40.16;102211.50;5018511;28;45260;-66
2023/03/01 00:19:02;;;;;;;;;24.00;20.25;;;;;5.04;40.13;102210.56;5018374;28;45418;-66
2023/03/01 00:21:28;;;;;;;;;25.75;22.75;;;;;5.00;40.35;102203.50;5017295;28;45519;-66
2023/03/01 00:23:54;;;;;;;;;23.00;20.50;;;;;4.97;40.17;102205.97;5017309;27;47068;-66
2023/03/01 00:26:23;;;;;;;;;25.25;20.75;;;;;4.96;39.96;102210.31;5018547;28;45339;-66
2023/03/01 00:28:48;;;;;;;;;25.50;23.50;;;;;4.91;40.29;102209.28;5018803;28;45394;-66
2023/03/01 00:31:19;;;;;;;;;26.75;24.00;;;;;4.87;40.53;102203.09;5017359;28;45595;-66
2023/03/01 00:33:45;;;;;;;;;27.50;26.00;;;;;4.86;39.78;102203.06;5018630;28;45512;-66
2023/03/01 00:36:13;;;;;;;;;28.75;28.25;;;;;4.83;40.58;102198.63;5018361;28;45709;-66
2023/03/01 00:38:41;;;;;;;;;33.25;29.50;;;;;4.80;40.20;102208.94;5017631;28;45431;-66
2023/03/01 00:41:08;;;;;;;;;32.25;24.50;;;;;4.78;40.08;102210.63;5013783;28;45334;-66
2023/03/01 00:43:36;;;;;;;;;29.25;22.25;;;;;4.76;40.27;102208.78;4997289;28;47282;-66
2023/03/01 00:46:10;;;;;;;;;24.75;23.50;;;;;4.72;40.44;102198.25;5016613;28;45272;-66
2023/03/01 00:48:36;;;;;;;;;24.75;22.00;;;;;4.72;40.30;102197.38;5018419;28;45403;-66
2023/03/01 00:51:09;;;;;;;;;29.25;24.75;;;;;4.66;40.25;102194.56;5018514;28;45224;-66
2023/03/01 00:53:35;;;;;;;;;23.75;22.75;;;;;4.69;40.43;102210.28;5018183;28;47065;-66
2023/03/01 00:56:01;;;;;;;;;23.50;22.50;;;;;4.63;40.35;102202.28;5018460;28;45322;-66
2023/03/01 00:58:26;;;;;;;;;24.00;21.00;;;;;4.65;40.56;102204.09;5018382;28;45250;-66
2023/03/01 01:00:54;;;;;;;;;29.00;23.50;;;;;4.63;40.33;102210.09;5018266;28;45149;-66
2023/03/01 01:03:20;;;;;;;;;28.25;24.00;;;;;4.58;40.59;102198.63;5018156;28;46220;-66
2023/03/01 01:05:45;;;;;;;;;30.75;24.50;;;;;4.58;40.22;102203.84;5018170;28;45393;-66
2023/03/01 01:08:12;;;;;;;;;24.25;20.25;;;;;4.55;40.60;102207.22;5018184;28;45476;-66
2023/03/01 01:10:37;;;;;;;;;25.00;21.00;;;;;4.54;40.67;102210.66;5013814;28;45407;-66
2023/03/01 01:13:03;;;;;;;;;23.50;23.00;;;;;4.50;40.78;102204.47;4999196;28;45575;-66
2023/03/01 01:15:29;;;;;;;;;24.00;21.50;;;;;4.50;40.43;102211.38;5018253;28;45345;-66
2023/03/01 01:17:54;;;;;;;;;24.00;20.75;;;;;4.46;40.68;102197.38;5018258;28;45247;-66
2023/03/01 01:20:20;;;;;;;;;25.75;24.00;;;;;4.41;40.46;102198.94;5016767;28;45445;-66
2023/03/01 01:22:45;;;;;;;;;29.25;25.00;;;;;4.42;40.51;102200.72;5016379;28;47262;-66
2023/03/01 01:25:10;;;;;;;;;26.75;19.50;;;;;4.41;40.33;102198.94;5018015;28;45223;-66
2023/03/01 01:27:36;;;;;;;;;26.25;22.75;;;;;4.38;40.73;102191.03;5018120;28;45461;-66
2023/03/01 01:30:03;;;;;;;;;27.50;24.50;;;;;4.41;40.63;102190.25;5018033;28;45586;-66
2023/03/01 01:32:29;;;;;;;;;25.50;24.75;;;;;4.38;40.85;102186.72;5032946;28;46406;-66
2023/03/01 01:34:54;;;;;;;;;24.75;22.00;;;;;4.38;40.95;102184.09;5017974;28;45342;-66
2023/03/01 01:37:20;;;;;;;;;25.25;23.00;;;;;4.37;40.54;102186.66;5017944;28;45776;-66
2023/03/01 01:39:45;;;;;;;;;22.50;15.25;;;;;4.34;40.80;102178.72;5017703;28;45279;-66
2023/03/01 01:42:20;;;;;;;;;22.75;20.25;;;;;4.26;40.70;102167.19;5003015;28;48192;-66
2023/03/01 01:44:47;;;;;;;;;27.75;25.75;;;;;4.32;40.88;102172.59;5006767;28;45373;-66
2023/03/01 01:47:21;;;;;;;;;25.75;23.00;;;;;4.30;40.62;102169.06;5017731;28;45432;-66
2023/03/01 01:49:50;;;;;;;;;31.00;25.50;;;;;4.29;41.06;102173.38;5017548;28;45391;-66
2023/03/01 01:52:26;;;;;;;;;25.50;22.00;;;;;4.25;41.11;102161.06;5017375;28;45280;-66
2023/03/01 01:55:14;;;;;;;;;23.25;23.00;;;;;4.25;41.10;102162.81;5017685;28;45390;-66
2023/03/01 01:57:45;;;;;;;;;28.75;22.00;;;;;4.23;40.98;102163.63;5017926;28;45358;-66
2023/03/01 02:00:18;;;;;;;;;28.50;24.25;;;;;4.18;41.01;102162.59;5017476;28;45299;-66
2023/03/01 02:02:46;;;;;;;;;14.25;13.00;;;;;4.18;41.04;102160.00;5016124;28;46497;-66
2023/03/01 02:05:21;;;;;;;;;19.75;19.75;;;;;4.19;41.06;102166.97;5017559;28;45222;-66
2023/03/01 02:07:48;;;;;;;;;26.00;19.50;;;;;4.17;41.25;102153.00;5017416;28;45305;-66
2023/03/01 02:10:13;;;;;;;;;24.50;22.75;;;;;4.16;41.37;102159.03;5016375;28;45571;-66
2023/03/01 02:12:39;;;;;;;;;28.25;20.75;;;;;4.16;40.74;102160.78;4997491;28;45724;-66
2023/03/01 02:15:05;;;;;;;;;24.25;23.00;;;;;4.15;41.18;102170.31;5014618;28;46132;-66
2023/03/01 02:17:32;;;;;;;;;24.25;22.25;;;;;4.13;41.12;102158.94;5017678;28;45387;-66
2023/03/01 02:20:09;;;;;;;;;29.00;21.50;;;;;4.12;41.20;102164.09;5017231;28;45323;-65
2023/03/01 02:22:38;;;;;;;;;20.50;19.50;;;;;4.09;41.27;102154.47;5017020;28;45245;-65
2023/03/01 02:25:19;;;;;;;;;23.75;22.00;;;;;4.05;41.19;102155.19;5016159;28;45942;-66
2023/03/01 02:28:07;;;;;;;;;27.00;21.00;;;;;4.06;40.82;102155.25;5017250;28;45321;-65
2023/03/01 02:30:34;;;;;;;;;27.00;21.25;;;;;4.06;41.07;102143.94;5017044;28;45246;-65
2023/03/01 02:33:04;;;;;;;;;22.75;19.50;;;;;4.02;41.42;102139.47;5016045;28;45750;-65
2023/03/01 02:35:37;;;;;;;;;18.00;15.75;;;;;4.02;41.21;102145.53;5015710;28;45840;-66
2023/03/01 02:38:05;;;;;;;;;27.50;24.25;;;;;4.03;41.49;102143.84;5017491;28;45729;-65
2023/03/01 02:40:34;;;;;;;;;22.25;20.50;;;;;4.03;41.29;102143.84;5016438;28;46446;-66
2023/03/01 02:42:59;;;;;;;;;19.00;19.00;;;;;4.01;41.09;102142.91;4985235;28;46903;-66
2023/03/01 02:45:26;;;;;;;;;27.25;21.25;;;;;4.01;41.63;102137.69;5015679;28;46146;-65
2023/03/01 02:47:56;;;;;;;;;25.50;23.25;;;;;4.00;41.00;102139.44;5017022;28;45560;-65
2023/03/01 02:51:00;;;;;;;;;27.25;24.50;;;;;3.97;41.42;102128.91;5016633;28;45231;-65
2023/03/01 02:53:41;;;;;;;;;26.50;21.50;;;;;3.96;41.77;102126.25;5015832;28;46081;-66
2023/03/01 02:56:12;;;;;;;;;26.75;23.25;;;;;3.98;41.17;102127.19;5015569;28;45333;-65
2023/03/01 02:58:45;;;;;;;;;26.50;22.00;;;;;3.95;41.56;102129.66;5016698;28;45381;-65
2023/03/01 03:01:15;;;;;;;;;32.50;24.50;;;;;3.95;41.15;102130.56;5016203;28;45221;-65
2023/03/01 03:03:41;;;;;;;;;26.00;23.50;;;;;3.93;41.39;102124.44;5015305;28;45441;-65
2023/03/01 03:06:06;;;;;;;;;30.75;23.50;;;;;3.94;41.71;102125.28;5015332;28;45366;-65
2023/03/01 03:08:32;;;;;;;;;25.75;24.25;;;;;3.93;41.18;102120.94;5016567;28;45347;-65
2023/03/01 03:10:57;;;;;;;;;25.00;21.50;;;;;3.85;41.27;102103.34;5009641;28;45232;-65
2023/03/01 03:13:28;;;;;;;;;23.25;21.00;;;;;3.92;41.14;102113.97;4998945;28;54133;-66
2023/03/01 03:15:55;;;;;;;;;23.75;21.50;;;;;3.89;41.65;102104.34;5016607;28;45397;-66
2023/03/01 03:18:20;;;;;;;;;27.25;25.00;;;;;3.89;41.34;102107.81;5015419;28;45417;-66
2023/03/01 03:20:45;;;;;;;;;24.75;22.00;;;;;3.89;41.46;102104.34;5016141;28;45390;-65
2023/03/01 03:23:11;;;;;;;;;26.00;24.75;;;;;3.88;41.38;102106.03;5016309;28;45479;-65
2023/03/01 03:25:37;;;;;;;;;27.50;23.50;;;;;3.88;41.84;102105.19;5015082;28;45410;-65
2023/03/01 03:28:09;;;;;;;;;25.50;23.25;;;;;3.86;41.44;102107.72;5048456;28;45368;-66
2023/03/01 03:30:36;;;;;;;;;27.00;22.50;;;;;3.85;41.59;102108.56;5016240;28;45372;-65
2023/03/01 03:33:02;;;;;;;;;23.75;23.75;;;;;3.84;41.09;102100.69;5016221;28;45337;-65
2023/03/01 03:35:39;;;;;;;;;27.75;23.75;;;;;3.81;41.36;102098.88;5016181;28;45381;-66
2023/03/01 03:38:15;;;;;;;;;28.00;23.00;;;;;3.83;41.26;102093.72;5031791;28;45249;-66
2023/03/01 03:40:44;;;;;;;;;30.00;24.25;;;;;3.71;41.89;102081.16;5046943;28;45381;-65
2023/03/01 03:43:16;;;;;;;;;32.75;25.25;;;;;3.78;41.76;102101.34;4996516;28;45460;-66
2023/03/01 03:45:44;;;;;;;;;26.50;23.00;;;;;3.75;41.74;102093.47;5012676;28;45222;-65
2023/03/01 03:48:10;;;;;;;;;28.25;25.50;;;;;3.77;41.56;102106.50;5016174;28;45514;-65
2023/03/01 03:50:36;;;;;;;;;22.75;21.00;;;;;3.76;41.76;102096.94;5015495;28;45563;-65
2023/03/01 03:53:04;;;;;;;;;27.75;23.00;;;;;3.73;41.28;102098.59;5016171;28;46187;-65
2023/03/01 03:55:30;;;;;;;;;22.75;20.75;;;;;3.72;41.47;102093.34;5014498;28;45431;-65
2023/03/01 03:57:57;;;;;;;;;25.75;23.25;;;;;3.68;41.89;102096.66;5014889;28;45316;-65
2023/03/01 04:00:23;;;;;;;;;27.25;22.00;;;;;3.67;41.72;102097.50;5015810;28;45297;-65
2023/03/01 04:02:50;;;;;;;;;26.00;22.00;;;;;3.66;41.83;102094.03;5015869;28;46094;-65
2023/03/01 04:05:17;;;;;;;;;25.75;20.50;;;;;3.65;42.09;102099.13;5015662;28;45351;-65
2023/03/01 04:07:45;;;;;;;;;28.75;20.75;;;;;3.64;42.16;102094.78;5016266;28;45473;-65
2023/03/01 04:10:13;;;;;;;;;32.50;25.25;;;;;3.60;42.32;102090.28;5014985;28;45255;-65
2023/03/01 04:12:38;;;;;;;;;28.00;23.25;;;;;3.61;41.78;102086.88;4995736;28;46189;-65
2023/03/01 04:15:12;;;;;;;;;31.00;24.25;;;;;3.59;42.12;102089.41;5030788;28;45335;-65
2023/03/01 04:17:39;;;;;;;;;28.00;23.75;;;;;3.56;41.65;102095.41;5019086;28;45276;-65
2023/03/01 04:20:05;;;;;;;;;26.25;23.50;;;;;3.56;41.84;102094.53;5033217;28;45447;-65
2023/03/01 04:22:31;;;;;;;;;31.75;24.50;;;;;3.55;41.88;102097.94;5017041;28;47046;-65
2023/03/01 04:24:57;;;;;;;;;26.25;23.75;;;;;3.52;41.97;102100.41;5018455;28;45407;-65
2023/03/01 04:27:22;;;;;;;;;30.00;26.25;;;;;3.51;42.02;102091.75;5017566;28;45336;-65
2023/03/01 04:29:47;;;;;;;;;29.00;27.50;;;;;3.48;42.02;102091.63;5017329;28;45541;-65
2023/03/01 04:32:15;;;;;;;;;28.75;24.50;;;;;3.39;42.09;102081.75;5018230;28;55032;-65
2023/03/01 04:34:41;;;;;;;;;29.75;27.00;;;;;3.48;42.00;102095.94;5018443;28;45325;-65
2023/03/01 04:37:06;;;;;;;;;32.25;27.25;;;;;3.50;42.24;102097.75;5018587;28;45326;-65
2023/03/01 04:39:32;;;;;;;;;27.25;21.25;;;;;3.50;42.35;102089.09;5033588;28;45413;-65
2023/03/01 04:41:57;;;;;;;;;25.25;22.00;;;;;3.46;41.96;102087.19;5007076;28;45298;-65
2023/03/01 04:44:23;;;;;;;;;30.50;28.50;;;;;3.49;41.88;102087.31;5004293;28;45191;-65
2023/03/01 04:46:50;;;;;;;;;29.00;21.75;;;;;3.44;41.86;102083.66;5017141;28;45684;-65
2023/03/01 04:49:15;;;;;;;;;28.00;26.25;;;;;3.46;42.46;102088.09;5033618;28;45445;-65
2023/03/01 04:51:41;;;;;;;;;29.25;26.25;;;;;3.48;42.42;102080.34;5018239;28;45389;-65
2023/03/01 04:54:08;;;;;;;;;29.25;26.50;;;;;3.41;42.46;102069.72;5018119;28;45373;-65
2023/03/01 04:56:34;;;;;;;;;31.50;26.25;;;;;3.39;42.09;102058.38;5018439;28;45302;-65
2023/03/01 04:59:00;;;;;;;;;30.50;27.00;;;;;3.45;42.09;102068.13;5018269;28;45281;-65
2023/03/01 05:01:25;;;;;;;;;29.25;25.00;;;;;3.41;42.20;102069.72;5016921;28;47082;-65
2023/03/01 05:03:52;;;;;;;;;26.50;23.75;;;;;3.44;42.27;102068.94;5016849;28;46090;-65
2023/03/01 05:06:18;;;;;;;;;27.50;27.50;;;;;3.42;41.89;102060.19;5018220;28;45325;-65
2023/03/01 05:08:44;;;;;;;;;33.25;28.75;;;;;3.43;42.04;102064.56;5049945;28;45442;-65
2023/03/01 05:11:10;;;;;;;;;27.25;26.00;;;;;3.42;42.26;102055.00;5009410;28;46114;-65
2023/03/01 05:13:37;;;;;;;;;24.25;20.50;;;;;3.40;42.56;102057.56;5018906;28;45349;-65
2023/03/01 05:16:04;;;;;;;;;27.75;25.50;;;;;3.44;42.14;102065.47;5018280;28;46534;-65
2023/03/01 05:18:32;;;;;;;;;31.25;26.75;;;;;3.42;42.59;102068.91;5017972;28;45301;-65
2023/03/01 05:21:12;;;;;;;;;29.75;26.25;;;;;3.42;42.08;102062.81;5017706;28;45311;-65
2023/03/01 05:23:39;;;;;;;;;24.00;22.75;;;;;3.40;42.16;102056.69;5018136;28;45328;-65
2023/03/01 05:26:05;;;;;;;;;33.75;26.75;;;;;3.40;42.44;102065.34;5015888;28;45650;-65
2023/03/01 05:28:32;;;;;;;;;28.75;26.25;;;;;3.39;42.51;102065.31;5018033;28;45452;-65
2023/03/01 05:30:57;;;;;;;;;28.25;27.00;;;;;3.37;42.37;102060.06;5017644;28;45300;-65
2023/03/01 05:33:24;;;;;;;;;32.75;29.75;;;;;3.33;42.29;102052.94;5017995;28;45148;-65
2023/03/01 05:35:51;;;;;;;;;29.50;25.00;;;;;3.36;42.76;102060.00;5016561;28;45449;-65
2023/03/01 05:38:17;;;;;;;;;28.25;23.75;;;;;3.35;42.60;102058.22;5016526;28;45461;-65
2023/03/01 05:40:44;;;;;;;;;35.75;27.50;;;;;3.33;42.68;102054.69;5031326;28;47296;-65
2023/03/01 05:43:11;;;;;;;;;32.00;27.75;;;;;3.28;42.66;102048.44;4998097;28;45240;-65
2023/03/01 05:45:38;;;;;;;;;27.00;22.25;;;;;3.31;42.86;102058.91;5016482;28;45277;-65
2023/03/01 05:48:04;;;;;;;;;25.75;22.25;;;;;3.31;42.67;102056.31;5017675;28;45498;-65
2023/03/01 05:50:33;;;;;;;;;30.25;24.75;;;;;3.31;42.28;102062.44;5017275;28;45285;-65
2023/03/01 05:53:02;;;;;;;;;32.75;29.00;;;;;3.29;42.36;102053.69;5016459;28;45520;-65
2023/03/01 05:55:30;;;;;;;;;27.25;27.25;;;;;3.25;43.02;102044.00;5017511;28;45314;-65
2023/03/01 05:57:59;;;;;;;;;33.00;29.75;;;;;3.32;42.73;102050.31;5017787;28;45471;-65
2023/03/01 06:00:24;;;;;;;;;21.25;19.25;;;;;3.25;42.49;102044.88;5008263;27;45925;-62
2023/03/01 06:02:51;;;;;;;;;34.00;29.75;;;;;3.26;42.80;102045.78;4998401;28;45233;-63
2023/03/01 06:05:17;;;;;;;;;29.25;25.75;;;;;3.26;42.69;102050.97;4994855;28;45512;-63
2023/03/01 06:07:43;;;;;;;;;34.75;30.50;;;;;3.23;42.78;102043.06;4998735;28;45316;-63
2023/03/01 06:10:10;;;;;;;;;36.50;32.00;;;;;3.23;42.59;102045.66;4997013;28;45557;-63
2023/03/01 06:12:38;;;;;;;;;27.75;27.25;;;;;3.24;42.50;102039.63;5002612;28;45395;-63
2023/03/01 06:15:05;;;;;;;;;29.75;27.75;;;;;3.19;42.58;102036.84;4996661;28;45262;-63
2023/03/01 06:17:33;;;;;;;;;31.50;28.75;;;;;3.23;42.83;102037.84;4996436;28;45469;-63
2023/03/01 06:19:58;;;;;;;;;35.00;31.00;;;;;3.16;42.84;102023.78;4998394;28;46265;-63
2023/03/01 06:22:24;;;;;;;;;39.00;33.00;;;;;3.21;42.72;102039.53;4996818;28;45857;-63
2023/03/01 06:24:49;;;;;;;;;33.50;28.75;;;;;3.17;42.43;102027.25;5002078;28;45299;-62
2023/03/01 06:27:15;;;;;;;;;33.25;31.25;;;;;3.19;42.89;102029.06;5015244;28;45480;-64
2023/03/01 06:29:40;;;;;;;;;28.75;28.75;;;;;3.20;42.61;102028.25;5015297;28;45709;-64
2023/03/01 06:32:07;;;;;;;;;30.25;28.25;;;;;3.17;42.98;102022.94;5013968;28;45435;-64
2023/03/01 06:34:33;;;;;;;;;30.25;28.50;;;;;3.15;42.74;102013.31;5011997;28;45413;-63
2023/03/01 06:36:58;;;;;;;;;38.75;32.25;;;;;3.15;43.08;102019.41;5011354;28;45426;-64
2023/03/01 06:39:24;;;;;;;;;33.00;30.00;;;;;3.13;42.97;102015.84;5017318;28;45371;-65
2023/03/01 06:41:49;;;;;;;;;30.25;23.25;;;;;3.16;43.12;102023.78;5008842;28;45226;-65
2023/03/01 06:44:14;;;;;;;;;34.75;32.00;;;;;3.14;42.86;102011.56;5004154;28;45302;-65
2023/03/01 06:46:40;;;;;;;;;31.25;31.00;;;;;3.14;43.38;102022.81;5017132;28;45389;-65
2023/03/01 06:49:09;;;;;;;;;35.75;33.00;;;;;3.12;42.73;102014.09;5017022;28;45922;-65
2023/03/01 06:51:35;;;;;;;;;34.50;31.00;;;;;3.10;43.17;102013.16;5013893;28;45246;-65
2023/03/01 06:54:00;;;;;;;;;42.25;34.00;;;;;3.07;42.90;102010.44;5030774;28;45469;-64
2023/03/01 06:56:26;;;;;;;;;39.25;35.75;;;;;3.10;43.05;102015.75;5017119;28;45500;-64
2023/03/01 06:58:51;;;;;;;;;36.00;30.25;;;;;3.07;42.92;102008.72;5015492;28;47282;-64
2023/03/01 07:01:16;;;;;;;;;38.00;33.50;;;;;3.09;43.58;102013.97;5010509;28;45256;-65
2023/03/01 07:03:44;;;;;;;;;43.50;37.75;;;;;3.05;42.96;102009.50;5014980;28;45337;-64
2023/03/01 07:06:09;;;;;;;;;46.25;37.25;;;;;3.08;43.25;102017.41;5010283;28;45341;-64
2023/03/01 07:08:34;;;;;;;;;41.75;35.50;;;;;3.09;43.16;102013.97;5010846;28;46854;-64
2023/03/01 07:11:02;;;;;;;;;36.75;35.25;;;;;3.08;43.14;102013.09;5015350;28;45273;-65
2023/03/01 07:13:27;;;;;;;;;44.25;33.50;;;;;3.09;43.34;102013.97;5024814;28;45304;-65
2023/03/01 07:15:53;;;;;;;;;46.50;38.50;;;;;3.06;43.16;102011.28;5016878;28;45546;-65
2023/03/01 07:18:18;;;;;;;;;39.00;35.00;;;;;3.05;42.81;102006.91;5016726;28;45779;-64
2023/03/01 07:20:43;;;;;;;;;47.00;38.25;;;;;3.05;43.22;102006.91;5016334;28;45409;-65
2023/03/01 07:23:08;;;;;;;;;40.50;35.25;;;;;3.06;43.20;102004.34;5016866;28;45328;-64
2023/03/01 07:25:34;;;;;;;;;48.00;36.75;;;;;3.08;43.49;102009.59;5015499;28;45454;-64
2023/03/01 07:27:59;;;;;;;;;36.50;35.50;;;;;3.08;43.58;102007.00;5016193;28;52989;-65
2023/03/01 07:30:27;;;;;;;;;40.00;35.75;;;;;3.08;43.48;102010.50;5015321;28;45555;-65
2023/03/01 07:32:52;;;;;;;;;37.00;33.00;;;;;3.12;43.54;102011.50;5016645;28;45240;-65
2023/03/01 07:35:18;;;;;;;;;47.75;37.25;;;;;3.13;43.15;102028.84;5016429;28;45394;-64
2023/03/01 07:37:43;;;;;;;;;41.00;35.50;;;;;3.08;43.37;102013.09;5014850;28;52638;-65
2023/03/01 07:40:10;;;;;;;;;40.25;31.75;;;;;3.13;43.57;102028.84;5014575;28;45646;-64
2023/03/01 07:42:35;;;;;;;;;38.25;37.25;;;;;3.12;43.66;102019.31;5003580;28;45220;-64
2023/03/01 07:45:01;;;;;;;;;45.00;38.00;;;;;3.10;43.47;102015.75;5003178;28;45256;-65
2023/03/01 07:47:26;;;;;;;;;41.00;37.25;;;;;3.14;43.40;102015.03;5016197;28;46298;-65
2023/03/01 07:49:51;;;;;;;;;46.75;38.50;;;;;3.15;43.88;102018.53;5019362;28;45204;-65
2023/03/01 07:52:17;;;;;;;;;50.75;42.00;;;;;3.15;43.34;102010.72;5017998;28;45227;-65
2023/03/01 07:54:44;;;;;;;;;43.25;35.25;;;;;3.19;43.39;102020.41;5019145;28;45184;-65
2023/03/01 07:57:09;;;;;;;;;45.75;38.75;;;;;3.21;43.91;102029.16;5019552;28;45487;-65
2023/03/01 07:59:34;;;;;;;;;49.50;39.75;;;;;3.22;43.86;102018.81;5019155;28;45424;-65
2023/03/01 08:02:00;;;;;;;;;45.00;40.50;;;;;3.24;43.41;102016.25;5018089;28;45438;-65
2023/03/01 08:04:26;;;;;;;;;48.75;39.75;;;;;3.29;43.74;102016.44;5019152;28;45427;-65
2023/03/01 08:06:52;;;;;;;;;45.50;40.25;;;;;3.30;43.51;102018.19;5019173;28;45431;-65
2023/03/01 08:09:17;;;;;;;;;47.75;38.50;;;;;3.32;43.66;102016.53;5017668;28;45388;-65
2023/03/01 08:11:42;;;;;;;;;49.00;39.75;;;;;3.34;43.89;102015.75;5019241;28;45390;-65
2023/03/01 08:14:08;;;;;;;;;50.25;41.75;;;;;3.39;43.47;102008.13;5002608;28;45537;-65
2023/03/01 08:16:35;;;;;;;;;43.50;38.25;;;;;3.39;43.68;102003.78;5019204;28;45302;-65
2023/03/01 08:19:04;;;;;;;;;51.75;41.00;;;;;3.43;43.61;101999.59;5018521;28;45188;-65
2023/03/01 08:21:29;;;;;;;;;45.50;39.00;;;;;3.47;43.93;102003.19;5019063;28;45277;-65
2023/03/01 08:23:55;;;;;;;;;44.75;36.50;;;;;3.52;43.71;102001.63;5017550;28;45605;-65
2023/03/01 08:26:21;;;;;;;;;46.75;39.25;;;;;3.54;43.64;102000.84;5017817;28;46069;-65
2023/03/01 08:28:48;;;;;;;;;47.00;39.50;;;;;3.60;43.82;101991.50;5018872;28;45244;-65
2023/03/01 08:31:18;;;;;;;;;45.50;39.50;;;;;3.58;44.17;101983.66;5019358;28;45337;-65
2023/03/01 08:33:44;;;;;;;;;54.00;42.75;;;;;3.70;44.21;101988.41;5017510;28;45348;-65
2023/03/01 08:36:09;;;;;;;;;46.25;37.75;;;;;3.73;43.73;101989.38;5018806;28;46098;-65
2023/03/01 08:38:35;;;;;;;;;44.25;36.50;;;;;3.84;43.57;101994.94;5018647;28;45309;-65
2023/03/01 08:41:02;;;;;;;;;50.50;39.75;;;;;3.89;44.00;101992.50;5015060;28;45421;-65
2023/03/01 08:43:28;;;;;;;;;50.50;40.00;;;;;3.93;44.05;101988.28;5011630;28;45325;-65
2023/03/01 08:45:53;;;;;;;;;44.75;39.50;;;;;3.99;44.18;101991.09;5017393;28;46875;-65
2023/03/01 08:48:18;;;;;;;;;47.75;40.25;;;;;4.03;44.34;101993.84;5018404;28;45411;-65
2023/03/01 08:50:44;;;;;;;;;40.75;38.50;;;;;4.09;43.92;101997.47;5018630;28;45206;-65
2023/03/01 08:53:09;;;;;;;;;48.75;39.25;;;;;4.15;43.95;101990.75;5018541;28;45644;-65
2023/03/01 08:55:34;;;;;;;;;50.75;37.50;;;;;4.22;43.87;101987.50;5018352;28;49035;-66
2023/03/01 08:58:00;;;;;;;;;48.00;41.00;;;;;4.27;44.06;101981.59;5017314;28;45875;-65
2023/03/01 09:00:25;;;;;;;;;48.25;42.00;;;;;4.37;44.25;101984.50;5017761;28;45402;-65
2023/03/01 09:02:51;;;;;;;;;45.50;40.00;;;;;4.44;44.00;101976.88;5018514;28;45373;-65
2023/03/01 09:05:16;;;;;;;;;51.75;42.25;;;;;4.53;43.84;101978.06;5017115;28;48146;-65
2023/03/01 09:07:42;;;;;;;;;54.50;42.75;;;;;4.62;44.18;101976.59;5018550;28;45525;-65
2023/03/01 09:10:08;;;;;;;;;52.00;38.00;;;;;4.68;44.09;101961.16;5018507;28;45373;-65
2023/03/01 09:12:33;;;;;;;;;46.75;39.00;;;;;4.81;44.22;101965.84;5012584;27;45760;-65
2023/03/01 09:14:58;;;;;;;;;46.50;37.00;;;;;4.80;44.00;101948.44;5006827;28;45171;-65
2023/03/01 09:17:24;;;;;;;;;54.50;41.25;;;;;5.01;44.38;101956.00;5018142;28;53257;-66
2023/03/01 09:19:49;;;;;;;;;44.75;38.50;;;;;5.10;44.08;101958.00;5018402;28;45289;-65
2023/03/01 09:22:14;;;;;;;;;43.25;36.00;;;;;5.16;44.58;101942.53;5017997;28;45604;-65
2023/03/01 09:24:40;;;;;;;;;49.75;40.75;;;;;5.28;44.32;101939.38;5016869;28;47441;-65
2023/03/01 09:27:08;;;;;;;;;43.75;38.25;;;;;5.38;44.48;101940.50;5016906;28;45276;-65
2023/03/01 09:29:35;;;;;;;;;45.50;39.75;;;;;5.49;44.50;101952.06;5018592;28;45432;-66
2023/03/01 09:32:00;;;;;;;;;39.25;35.25;;;;;5.60;44.59;101943.69;5018079;28;45583;-65
2023/03/01 09:34:26;;;;;;;;;49.00;38.75;;;;;5.70;44.37;101938.72;5018344;28;46278;-65
2023/03/01 09:36:51;;;;;;;;;43.75;36.25;;;;;5.79;44.45;101927.63;5017872;28;45242;-65
2023/03/01 09:39:20;;;;;;;;;42.75;38.00;;;;;5.92;44.16;101931.41;5018267;28;45217;-65
2023/03/01 09:42:04;;;;;;;;;37.50;34.50;;;;;6.04;44.47;101928.25;5009739;28;45321;-65
2023/03/01 09:44:34;;;;;;;;;52.00;38.75;;;;;6.17;44.50;101922.44;5007275;28;46063;-65
2023/03/01 09:47:00;;;;;;;;;42.00;37.50;;;;;6.29;44.45;101919.25;5015969;28;45305;-65
2023/03/01 09:49:30;;;;;;;;;46.75;41.00;;;;;6.40;44.49;101911.69;5016901;28;45238;-65
2023/03/01 09:52:29;;;;;;;;;51.75;40.00;;;;;6.62;44.36;101915.59;5016880;28;45278;-65
2023/03/01 09:54:55;;;;;;;;;49.75;36.50;;;;;6.77;44.61;101917.66;5017672;28;45951;-65
2023/03/01 09:57:30;;;;;;;;;47.00;39.00;;;;;6.92;44.55;101906.63;5018114;28;45251;-65
2023/03/01 10:00:10;;;;;;;;;46.75;38.25;;;;;7.06;44.76;101906.03;5016561;28;45429;-65
2023/03/01 10:02:42;;;;;;;;;52.50;41.00;;;;;7.21;44.59;101900.16;5016526;28;45484;-65
2023/03/01 10:05:24;;;;;;;;;43.50;36.50;;;;;7.37;44.60;101910.09;5017652;28;46294;-65
2023/03/01 10:08:04;;;;;;;;;47.00;38.00;;;;;7.52;44.51;101896.41;5016424;28;45185;-66
2023/03/01 10:10:35;;;;;;;;;43.00;38.00;;;;;7.67;44.44;101895.75;5017797;28;45463;-65
2023/03/01 10:13:17;;;;;;;;;45.25;37.25;;;;;7.87;44.74;101897.81;5024599;28;45485;-66
2023/03/01 10:16:10;;;;;;;;;51.25;40.75;;;;;8.08;44.51;101892.88;5027590;28;46772;-66
2023/03/01 10:18:39;;;;;;;;;48.75;38.00;;;;;8.27;44.61;101883.53;5015230;28;45640;-66
2023/03/01 10:21:23;;;;;;;;;50.75;39.50;;;;;8.48;44.51;101879.50;5017431;28;45286;-66
2023/03/01 10:23:53;;;;;;;;;48.50;39.50;;;;;8.66;44.78;101883.22;5017600;28;45294;-66
2023/03/01 10:26:30;;;;;;;;;50.25;40.25;;;;;8.85;44.75;101885.16;5017588;28;45264;-66
2023/03/01 10:29:02;;;;;;;;;52.50;38.75;;;;;9.02;44.71;101879.22;5016007;28;45309;-66
2023/03/01 10:31:59;;;;;;;;;48.50;40.50;;;;;9.14;44.58;101881.09;5017800;28;45314;-66
2023/03/01 10:34:29;;;;;;;;;54.50;40.00;;;;;9.33;44.36;101883.03;5013051;28;46126;-66
2023/03/01 10:37:24;;;;;;;;;47.00;38.00;;;;;9.50;44.44;101884.94;5017118;28;45287;-66
2023/03/01 10:40:07;;;;;;;;;49.75;42.00;;;;;9.63;44.26;101878.91;5014519;28;45280;-67
2023/03/01 10:42:37;;;;;;;;;51.25;38.75;;;;;9.73;44.39;101882.50;5010225;28;45447;-67
2023/03/01 10:45:25;;;;;;;;;49.75;40.00;;;;;9.86;44.15;101876.47;5017935;28;45476;-67
2023/03/01 10:48:04;;;;;;;;;54.50;43.25;;;;;9.94;44.55;101868.63;5016920;28;46280;-67
2023/03/01 10:50:31;;;;;;;;;48.50;40.00;;;;;10.04;44.16;101875.69;5016304;27;45438;-67
2023/03/01 10:53:03;;;;;;;;;52.00;39.25;;;;;10.12;44.04;101869.63;5032845;28;45468;-67
2023/03/01 10:55:39;;;;;;;;;52.25;41.50;;;;;10.19;44.10;101868.78;5017185;28;45244;-67
2023/03/01 10:58:19;;;;;;;;;52.75;43.00;;;;;10.23;43.87;101862.69;5017066;28;46216;-67
2023/03/01 11:00:48;;;;;;;;;50.50;40.25;;;;;10.29;43.99;101867.06;5016932;28;45462;-66
2023/03/01 11:03:19;;;;;;;;;45.50;38.00;;;;;10.33;43.80;101866.22;5015958;28;45480;-66
2023/03/01 11:05:58;;;;;;;;;50.75;40.50;;;;;10.38;43.81;101864.53;5017061;28;45435;-66
2023/03/01 11:08:38;;;;;;;;;46.50;40.00;;;;;10.42;43.79;101860.19;5016918;28;46491;-67
2023/03/01 11:11:22;;;;;;;;;46.00;38.75;;;;;10.43;43.87;101864.53;5016688;28;45399;-67
2023/03/01 11:13:59;;;;;;;;;52.00;40.25;;;;;10.43;43.72;101856.66;5002317;28;45234;-67
2023/03/01 11:16:37;;;;;;;;;46.00;38.50;;;;;10.46;43.71;101861.94;5016188;28;45541;-67
2023/03/01 11:19:11;;;;;;;;;46.75;39.00;;;;;10.48;43.66;101868.09;5016492;28;46268;-66
2023/03/01 11:22:16;;;;;;;;;48.00;40.75;;;;;10.48;43.50;101857.56;5016505;28;45259;-67
2023/03/01 11:24:45;;;;;;;;;49.75;39.00;;;;;10.49;43.40;101847.06;5019744;28;45435;-67